sensor_id;sensor_type;location;lat;lon;timestamp;P1;durP1;ratioP1;P2;durP2;ratioP2
63801;SDS011;49949;43.060;25.624;2022-08-21T00:01:35;16.23;;;5.38;;
63801;SDS011;49949;43.060;25.624;2022-08-21T00:04:07;13.98;;;5.53;;
63801;SDS011;49949;43.060;25.624;2022-08-21T00:06:34;13.25;;;5.93;;
63801;SDS011;49949;43.060;25.624;2022-08-21T00:09:02;12.00;;;6.40;;
63801;SDS011;49949;43.060;25.624;2022-08-21T00:11:30;10.00;;;6.10;;
63801;SDS011;49949;43.060;25.624;2022-08-21T00:13:56;9.55;;;5.80;;
63801;SDS011;49949;43.060;25.624;2022-08-21T00:16:21;9.93;;;5.18;;
63801;SDS011;49949;43.060;25.624;2022-08-21T00:18:48;12.23;;;6.32;;
63801;SDS011;49949;43.060;25.624;2022-08-21T00:21:14;10.60;;;6.10;;
63801;SDS011;49949;43.060;25.624;2022-08-21T00:23:40;10.02;;;5.93;;
63801;SDS011;49949;43.060;25.624;2022-08-21T00:26:07;11.25;;;6.80;;
63801;SDS011;49949;43.060;25.624;2022-08-21T00:28:33;11.20;;;7.85;;
63801;SDS011;49949;43.060;25.624;2022-08-21T00:30:58;21.67;;;9.55;;
63801;SDS011;49949;43.060;25.624;2022-08-21T00:33:24;129.70;;;17.73;;
63801;SDS011;49949;43.060;25.624;2022-08-21T00:35:51;83.15;;;12.13;;
63801;SDS011;49949;43.060;25.624;2022-08-21T00:38:17;33.15;;;10.68;;
63801;SDS011;49949;43.060;25.624;2022-08-21T00:40:46;33.53;;;10.23;;
63801;SDS011;49949;43.060;25.624;2022-08-21T00:43:18;33.92;;;10.68;;
63801;SDS011;49949;43.060;25.624;2022-08-21T00:45:46;15.07;;;8.90;;
63801;SDS011;49949;43.060;25.624;2022-08-21T00:48:12;15.90;;;9.23;;
63801;SDS011;49949;43.060;25.624;2022-08-21T00:50:40;27.52;;;9.95;;
63801;SDS011;49949;43.060;25.624;2022-08-21T00:53:11;24.60;;;10.85;;
63801;SDS011;49949;43.060;25.624;2022-08-21T00:55:38;24.35;;;10.95;;
63801;SDS011;49949;43.060;25.624;2022-08-21T00:58:06;15.52;;;8.98;;
63801;SDS011;49949;43.060;25.624;2022-08-21T01:00:35;20.92;;;10.60;;
63801;SDS011;49949;43.060;25.624;2022-08-21T01:03:07;27.30;;;10.48;;
63801;SDS011;49949;43.060;25.624;2022-08-21T01:05:35;24.00;;;11.60;;
63801;SDS011;49949;43.060;25.624;2022-08-21T01:08:02;24.13;;;13.45;;
63801;SDS011;49949;43.060;25.624;2022-08-21T01:10:28;22.55;;;12.60;;
63801;SDS011;49949;43.060;25.624;2022-08-21T01:12:55;21.73;;;11.07;;
63801;SDS011;49949;43.060;25.624;2022-08-21T01:15:27;17.67;;;11.38;;
63801;SDS011;49949;43.060;25.624;2022-08-21T01:17:57;21.58;;;12.85;;
63801;SDS011;49949;43.060;25.624;2022-08-21T01:20:23;24.92;;;12.40;;
63801;SDS011;49949;43.060;25.624;2022-08-21T01:22:49;17.80;;;10.02;;
63801;SDS011;49949;43.060;25.624;2022-08-21T01:25:16;18.33;;;9.95;;
63801;SDS011;49949;43.060;25.624;2022-08-21T01:27:44;15.10;;;11.65;;
63801;SDS011;49949;43.060;25.624;2022-08-21T01:32:39;21.10;;;11.88;;
63801;SDS011;49949;43.060;25.624;2022-08-21T01:35:06;20.10;;;10.88;;
63801;SDS011;49949;43.060;25.624;2022-08-21T01:37:33;16.85;;;11.93;;
63801;SDS011;49949;43.060;25.624;2022-08-21T01:39:59;19.10;;;12.30;;
63801;SDS011;49949;43.060;25.624;2022-08-21T01:42:25;18.85;;;11.88;;
63801;SDS011;49949;43.060;25.624;2022-08-21T01:44:51;19.73;;;12.20;;
63801;SDS011;49949;43.060;25.624;2022-08-21T01:47:17;19.20;;;11.48;;
63801;SDS011;49949;43.060;25.624;2022-08-21T01:49:43;19.20;;;11.40;;
63801;SDS011;49949;43.060;25.624;2022-08-21T01:52:10;17.55;;;14.05;;
63801;SDS011;49949;43.060;25.624;2022-08-21T01:54:36;26.13;;;15.02;;
63801;SDS011;49949;43.060;25.624;2022-08-21T01:57:02;20.25;;;12.38;;
63801;SDS011;49949;43.060;25.624;2022-08-21T01:59:29;22.13;;;12.23;;
63801;SDS011;49949;43.060;25.624;2022-08-21T02:01:55;19.55;;;14.55;;
63801;SDS011;49949;43.060;25.624;2022-08-21T02:04:21;20.55;;;14.68;;
63801;SDS011;49949;43.060;25.624;2022-08-21T02:06:47;24.90;;;13.25;;
63801;SDS011;49949;43.060;25.624;2022-08-21T02:09:13;22.38;;;12.52;;
63801;SDS011;49949;43.060;25.624;2022-08-21T02:11:39;28.13;;;16.23;;
63801;SDS011;49949;43.060;25.624;2022-08-21T02:14:07;20.98;;;12.82;;
63801;SDS011;49949;43.060;25.624;2022-08-21T02:16:38;23.55;;;15.20;;
63801;SDS011;49949;43.060;25.624;2022-08-21T02:19:04;24.60;;;16.48;;
63801;SDS011;49949;43.060;25.624;2022-08-21T02:21:30;26.48;;;14.60;;
63801;SDS011;49949;43.060;25.624;2022-08-21T02:23:56;24.83;;;17.33;;
63801;SDS011;49949;43.060;25.624;2022-08-21T02:26:21;22.75;;;14.82;;
63801;SDS011;49949;43.060;25.624;2022-08-21T02:28:48;21.88;;;14.65;;
63801;SDS011;49949;43.060;25.624;2022-08-21T02:31:13;19.52;;;14.18;;
63801;SDS011;49949;43.060;25.624;2022-08-21T02:33:39;23.83;;;14.93;;
63801;SDS011;49949;43.060;25.624;2022-08-21T02:36:05;19.73;;;13.80;;
63801;SDS011;49949;43.060;25.624;2022-08-21T02:38:33;21.63;;;14.23;;
63801;SDS011;49949;43.060;25.624;2022-08-21T02:41:04;24.58;;;17.08;;
63801;SDS011;49949;43.060;25.624;2022-08-21T02:43:32;21.02;;;15.48;;
63801;SDS011;49949;43.060;25.624;2022-08-21T02:45:58;23.40;;;15.70;;
63801;SDS011;49949;43.060;25.624;2022-08-21T02:48:26;22.00;;;16.63;;
63801;SDS011;49949;43.060;25.624;2022-08-21T02:50:54;26.00;;;15.55;;
63801;SDS011;49949;43.060;25.624;2022-08-21T02:53:21;23.23;;;16.88;;
63801;SDS011;49949;43.060;25.624;2022-08-21T02:55:48;30.10;;;20.50;;
63801;SDS011;49949;43.060;25.624;2022-08-21T02:58:16;29.65;;;19.55;;
63801;SDS011;49949;43.060;25.624;2022-08-21T03:00:43;25.17;;;16.67;;
63801;SDS011;49949;43.060;25.624;2022-08-21T03:03:09;25.02;;;13.55;;
63801;SDS011;49949;43.060;25.624;2022-08-21T03:05:36;23.25;;;12.85;;
63801;SDS011;49949;43.060;25.624;2022-08-21T03:08:03;17.77;;;13.13;;
63801;SDS011;49949;43.060;25.624;2022-08-21T03:10:32;27.00;;;14.65;;
63801;SDS011;49949;43.060;25.624;2022-08-21T03:12:58;18.92;;;14.93;;
63801;SDS011;49949;43.060;25.624;2022-08-21T03:15:25;24.63;;;15.60;;
63801;SDS011;49949;43.060;25.624;2022-08-21T03:17:50;29.95;;;17.52;;
63801;SDS011;49949;43.060;25.624;2022-08-21T03:20:18;36.17;;;15.90;;
63801;SDS011;49949;43.060;25.624;2022-08-21T03:22:47;26.60;;;16.85;;
63801;SDS011;49949;43.060;25.624;2022-08-21T03:25:13;36.65;;;23.95;;
63801;SDS011;49949;43.060;25.624;2022-08-21T03:27:39;31.33;;;20.58;;
63801;SDS011;49949;43.060;25.624;2022-08-21T03:30:06;23.13;;;15.77;;
63801;SDS011;49949;43.060;25.624;2022-08-21T03:32:33;22.73;;;15.20;;
63801;SDS011;49949;43.060;25.624;2022-08-21T03:35:00;31.80;;;17.70;;
63801;SDS011;49949;43.060;25.624;2022-08-21T03:37:26;35.92;;;21.17;;
63801;SDS011;49949;43.060;25.624;2022-08-21T03:39:52;34.40;;;22.38;;
63801;SDS011;49949;43.060;25.624;2022-08-21T03:42:18;36.08;;;21.00;;
63801;SDS011;49949;43.060;25.624;2022-08-21T03:44:44;48.22;;;28.77;;
63801;SDS011;49949;43.060;25.624;2022-08-21T03:47:09;38.58;;;20.80;;
63801;SDS011;49949;43.060;25.624;2022-08-21T03:49:35;32.42;;;18.52;;
63801;SDS011;49949;43.060;25.624;2022-08-21T03:52:02;29.83;;;18.10;;
63801;SDS011;49949;43.060;25.624;2022-08-21T03:54:29;29.73;;;18.35;;
63801;SDS011;49949;43.060;25.624;2022-08-21T03:56:54;28.45;;;18.85;;
63801;SDS011;49949;43.060;25.624;2022-08-21T03:59:21;27.70;;;18.50;;
63801;SDS011;49949;43.060;25.624;2022-08-21T04:01:54;25.30;;;17.08;;
63801;SDS011;49949;43.060;25.624;2022-08-21T04:04:22;33.83;;;21.58;;
63801;SDS011;49949;43.060;25.624;2022-08-21T04:06:48;34.05;;;19.48;;
63801;SDS011;49949;43.060;25.624;2022-08-21T04:09:15;29.27;;;19.48;;
63801;SDS011;49949;43.060;25.624;2022-08-21T04:11:41;25.70;;;18.40;;
63801;SDS011;49949;43.060;25.624;2022-08-21T04:14:07;29.23;;;18.13;;
63801;SDS011;49949;43.060;25.624;2022-08-21T04:16:33;31.85;;;18.08;;
63801;SDS011;49949;43.060;25.624;2022-08-21T04:18:59;21.90;;;15.63;;
63801;SDS011;49949;43.060;25.624;2022-08-21T04:21:26;26.55;;;15.88;;
63801;SDS011;49949;43.060;25.624;2022-08-21T04:23:53;24.23;;;15.70;;
63801;SDS011;49949;43.060;25.624;2022-08-21T04:26:20;21.88;;;14.15;;
63801;SDS011;49949;43.060;25.624;2022-08-21T04:28:46;23.27;;;13.57;;
63801;SDS011;49949;43.060;25.624;2022-08-21T04:31:12;23.50;;;14.15;;
63801;SDS011;49949;43.060;25.624;2022-08-21T04:33:38;20.40;;;14.52;;
63801;SDS011;49949;43.060;25.624;2022-08-21T04:36:04;27.08;;;16.00;;
63801;SDS011;49949;43.060;25.624;2022-08-21T04:38:30;26.60;;;15.77;;
63801;SDS011;49949;43.060;25.624;2022-08-21T04:40:56;30.55;;;17.42;;
63801;SDS011;49949;43.060;25.624;2022-08-21T04:43:22;31.55;;;17.73;;
63801;SDS011;49949;43.060;25.624;2022-08-21T04:45:49;26.90;;;17.10;;
63801;SDS011;49949;43.060;25.624;2022-08-21T04:48:17;27.35;;;18.02;;
63801;SDS011;49949;43.060;25.624;2022-08-21T04:56:17;28.92;;;19.35;;
63801;SDS011;49949;43.060;25.624;2022-08-21T04:58:50;29.42;;;18.05;;
63801;SDS011;49949;43.060;25.624;2022-08-21T05:01:21;25.85;;;16.73;;
63801;SDS011;49949;43.060;25.624;2022-08-21T05:03:50;27.92;;;16.65;;
63801;SDS011;49949;43.060;25.624;2022-08-21T05:06:20;27.37;;;16.90;;
63801;SDS011;49949;43.060;25.624;2022-08-21T05:08:47;26.98;;;17.52;;
63801;SDS011;49949;43.060;25.624;2022-08-21T05:11:15;32.75;;;18.73;;
63801;SDS011;49949;43.060;25.624;2022-08-21T05:13:41;29.70;;;18.85;;
63801;SDS011;49949;43.060;25.624;2022-08-21T05:16:07;30.90;;;20.48;;
63801;SDS011;49949;43.060;25.624;2022-08-21T05:18:33;32.45;;;20.10;;
63801;SDS011;49949;43.060;25.624;2022-08-21T05:20:59;31.67;;;19.70;;
63801;SDS011;49949;43.060;25.624;2022-08-21T05:23:24;26.33;;;18.33;;
63801;SDS011;49949;43.060;25.624;2022-08-21T05:25:51;29.42;;;20.15;;
63801;SDS011;49949;43.060;25.624;2022-08-21T05:28:17;36.38;;;22.58;;
63801;SDS011;49949;43.060;25.624;2022-08-21T05:30:43;27.98;;;18.95;;
63801;SDS011;49949;43.060;25.624;2022-08-21T05:33:09;25.40;;;19.63;;
63801;SDS011;49949;43.060;25.624;2022-08-21T05:35:35;28.55;;;19.85;;
63801;SDS011;49949;43.060;25.624;2022-08-21T05:38:02;26.88;;;17.90;;
63801;SDS011;49949;43.060;25.624;2022-08-21T05:40:29;30.05;;;19.77;;
63801;SDS011;49949;43.060;25.624;2022-08-21T05:42:55;26.92;;;20.60;;
63801;SDS011;49949;43.060;25.624;2022-08-21T05:45:22;29.27;;;18.30;;
63801;SDS011;49949;43.060;25.624;2022-08-21T05:47:49;27.02;;;16.75;;
63801;SDS011;49949;43.060;25.624;2022-08-21T05:50:14;26.02;;;17.98;;
63801;SDS011;49949;43.060;25.624;2022-08-21T05:52:40;33.53;;;20.17;;
63801;SDS011;49949;43.060;25.624;2022-08-21T05:55:06;28.83;;;19.27;;
63801;SDS011;49949;43.060;25.624;2022-08-21T05:57:32;42.83;;;22.50;;
63801;SDS011;49949;43.060;25.624;2022-08-21T05:59:57;40.55;;;20.63;;
63801;SDS011;49949;43.060;25.624;2022-08-21T06:02:23;23.75;;;13.65;;
63801;SDS011;49949;43.060;25.624;2022-08-21T06:04:49;20.95;;;11.27;;
63801;SDS011;49949;43.060;25.624;2022-08-21T06:07:15;20.13;;;11.90;;
63801;SDS011;49949;43.060;25.624;2022-08-21T06:09:41;20.55;;;11.15;;
63801;SDS011;49949;43.060;25.624;2022-08-21T06:12:07;15.80;;;10.25;;
63801;SDS011;49949;43.060;25.624;2022-08-21T06:14:35;14.90;;;8.77;;
63801;SDS011;49949;43.060;25.624;2022-08-21T06:17:06;15.07;;;10.02;;
63801;SDS011;49949;43.060;25.624;2022-08-21T06:19:33;18.75;;;10.63;;
63801;SDS011;49949;43.060;25.624;2022-08-21T06:21:59;14.48;;;9.00;;
63801;SDS011;49949;43.060;25.624;2022-08-21T06:24:25;17.50;;;9.63;;
63801;SDS011;49949;43.060;25.624;2022-08-21T06:26:51;14.02;;;9.52;;
63801;SDS011;49949;43.060;25.624;2022-08-21T06:29:18;16.05;;;9.50;;
63801;SDS011;49949;43.060;25.624;2022-08-21T06:31:45;19.83;;;9.20;;
63801;SDS011;49949;43.060;25.624;2022-08-21T06:34:12;18.48;;;9.10;;
63801;SDS011;49949;43.060;25.624;2022-08-21T06:36:38;13.30;;;9.18;;
63801;SDS011;49949;43.060;25.624;2022-08-21T06:39:04;15.65;;;9.38;;
63801;SDS011;49949;43.060;25.624;2022-08-21T06:41:30;14.27;;;8.85;;
63801;SDS011;49949;43.060;25.624;2022-08-21T06:43:56;17.10;;;10.00;;
63801;SDS011;49949;43.060;25.624;2022-08-21T06:46:23;16.05;;;10.30;;
63801;SDS011;49949;43.060;25.624;2022-08-21T06:48:50;22.38;;;10.63;;
63801;SDS011;49949;43.060;25.624;2022-08-21T06:51:16;20.70;;;10.60;;
63801;SDS011;49949;43.060;25.624;2022-08-21T06:53:42;16.98;;;10.27;;
63801;SDS011;49949;43.060;25.624;2022-08-21T06:56:07;15.00;;;11.00;;
63801;SDS011;49949;43.060;25.624;2022-08-21T06:58:33;22.70;;;11.50;;
63801;SDS011;49949;43.060;25.624;2022-08-21T07:00:59;17.52;;;10.55;;
63801;SDS011;49949;43.060;25.624;2022-08-21T07:03:27;19.13;;;11.88;;
63801;SDS011;49949;43.060;25.624;2022-08-21T07:05:55;20.70;;;9.63;;
63801;SDS011;49949;43.060;25.624;2022-08-21T07:08:23;19.83;;;10.57;;
63801;SDS011;49949;43.060;25.624;2022-08-21T07:10:49;16.95;;;10.10;;
63801;SDS011;49949;43.060;25.624;2022-08-21T07:13:16;13.20;;;10.20;;
63801;SDS011;49949;43.060;25.624;2022-08-21T07:15:42;16.58;;;10.75;;
63801;SDS011;49949;43.060;25.624;2022-08-21T07:18:09;11.20;;;8.93;;
63801;SDS011;49949;43.060;25.624;2022-08-21T07:20:36;16.70;;;9.95;;
63801;SDS011;49949;43.060;25.624;2022-08-21T07:23:03;15.35;;;8.77;;
63801;SDS011;49949;43.060;25.624;2022-08-21T07:25:33;13.52;;;9.60;;
63801;SDS011;49949;43.060;25.624;2022-08-21T07:28:00;15.73;;;8.77;;
63801;SDS011;49949;43.060;25.624;2022-08-21T07:30:26;16.27;;;9.10;;
63801;SDS011;49949;43.060;25.624;2022-08-21T07:32:51;13.85;;;9.95;;
63801;SDS011;49949;43.060;25.624;2022-08-21T07:35:18;15.70;;;8.88;;
63801;SDS011;49949;43.060;25.624;2022-08-21T07:37:47;14.60;;;9.43;;
63801;SDS011;49949;43.060;25.624;2022-08-21T07:40:13;15.43;;;8.95;;
63801;SDS011;49949;43.060;25.624;2022-08-21T07:42:44;13.98;;;8.25;;
63801;SDS011;49949;43.060;25.624;2022-08-21T07:47:37;17.45;;;8.27;;
63801;SDS011;49949;43.060;25.624;2022-08-21T07:50:04;15.15;;;9.40;;
63801;SDS011;49949;43.060;25.624;2022-08-21T07:52:31;16.83;;;8.52;;
63801;SDS011;49949;43.060;25.624;2022-08-21T07:54:57;17.50;;;9.18;;
63801;SDS011;49949;43.060;25.624;2022-08-21T07:57:23;12.85;;;9.05;;
63801;SDS011;49949;43.060;25.624;2022-08-21T07:59:49;26.40;;;9.15;;
63801;SDS011;49949;43.060;25.624;2022-08-21T08:02:25;17.55;;;9.07;;
63801;SDS011;49949;43.060;25.624;2022-08-21T08:04:52;15.63;;;9.95;;
63801;SDS011;49949;43.060;25.624;2022-08-21T08:07:18;14.63;;;9.57;;
63801;SDS011;49949;43.060;25.624;2022-08-21T08:09:44;11.38;;;7.55;;
63801;SDS011;49949;43.060;25.624;2022-08-21T08:12:10;13.00;;;8.73;;
63801;SDS011;49949;43.060;25.624;2022-08-21T08:14:36;18.40;;;9.60;;
63801;SDS011;49949;43.060;25.624;2022-08-21T08:17:01;19.50;;;8.65;;
63801;SDS011;49949;43.060;25.624;2022-08-21T08:19:28;17.02;;;9.73;;
63801;SDS011;49949;43.060;25.624;2022-08-21T08:21:53;20.77;;;9.07;;
63801;SDS011;49949;43.060;25.624;2022-08-21T08:24:19;16.33;;;8.27;;
63801;SDS011;49949;43.060;25.624;2022-08-21T08:26:45;14.40;;;7.90;;
63801;SDS011;49949;43.060;25.624;2022-08-21T08:29:12;16.77;;;8.13;;
63801;SDS011;49949;43.060;25.624;2022-08-21T08:31:37;18.55;;;8.77;;
63801;SDS011;49949;43.060;25.624;2022-08-21T08:34:03;14.73;;;8.70;;
63801;SDS011;49949;43.060;25.624;2022-08-21T08:36:34;22.75;;;9.88;;
63801;SDS011;49949;43.060;25.624;2022-08-21T08:39:04;18.83;;;8.85;;
63801;SDS011;49949;43.060;25.624;2022-08-21T08:41:30;16.35;;;9.25;;
63801;SDS011;49949;43.060;25.624;2022-08-21T08:44:02;11.88;;;8.07;;
63801;SDS011;49949;43.060;25.624;2022-08-21T08:46:38;13.80;;;8.98;;
63801;SDS011;49949;43.060;25.624;2022-08-21T08:54:12;15.77;;;8.60;;
63801;SDS011;49949;43.060;25.624;2022-08-21T08:56:46;25.67;;;13.98;;
63801;SDS011;49949;43.060;25.624;2022-08-21T08:59:19;17.25;;;7.60;;
63801;SDS011;49949;43.060;25.624;2022-08-21T09:01:51;19.02;;;9.68;;
63801;SDS011;49949;43.060;25.624;2022-08-21T09:04:18;14.63;;;7.40;;
63801;SDS011;49949;43.060;25.624;2022-08-21T09:12:45;13.05;;;5.75;;
63801;SDS011;49949;43.060;25.624;2022-08-21T09:15:30;10.70;;;6.38;;
63801;SDS011;49949;43.060;25.624;2022-08-21T09:26:21;18.65;;;8.98;;
63801;SDS011;49949;43.060;25.624;2022-08-21T09:28:51;18.67;;;8.30;;
63801;SDS011;49949;43.060;25.624;2022-08-21T09:31:27;25.30;;;8.82;;
63801;SDS011;49949;43.060;25.624;2022-08-21T09:33:59;33.38;;;10.00;;
63801;SDS011;49949;43.060;25.624;2022-08-21T09:36:31;30.10;;;8.15;;
63801;SDS011;49949;43.060;25.624;2022-08-21T09:39:48;14.48;;;6.30;;
63801;SDS011;49949;43.060;25.624;2022-08-21T09:44:35;10.52;;;5.32;;
63801;SDS011;49949;43.060;25.624;2022-08-21T09:47:08;14.43;;;5.43;;
63801;SDS011;49949;43.060;25.624;2022-08-21T09:49:38;12.55;;;5.68;;
63801;SDS011;49949;43.060;25.624;2022-08-21T09:52:16;17.23;;;5.70;;
63801;SDS011;49949;43.060;25.624;2022-08-21T09:57:26;12.13;;;5.10;;
63801;SDS011;49949;43.060;25.624;2022-08-21T10:02:54;12.18;;;6.13;;
63801;SDS011;49949;43.060;25.624;2022-08-21T10:05:50;14.00;;;5.38;;
63801;SDS011;49949;43.060;25.624;2022-08-21T10:08:28;10.32;;;4.85;;
63801;SDS011;49949;43.060;25.624;2022-08-21T10:10:55;10.15;;;4.93;;
63801;SDS011;49949;43.060;25.624;2022-08-21T10:19:02;8.95;;;4.43;;
63801;SDS011;49949;43.060;25.624;2022-08-21T10:26:53;10.38;;;4.60;;
63801;SDS011;49949;43.060;25.624;2022-08-21T10:43:33;21.88;;;4.60;;
63801;SDS011;49949;43.060;25.624;2022-08-21T10:48:59;18.70;;;4.68;;
63801;SDS011;49949;43.060;25.624;2022-08-21T10:56:42;13.77;;;6.10;;
63801;SDS011;49949;43.060;25.624;2022-08-21T11:02:03;12.77;;;4.68;;
63801;SDS011;49949;43.060;25.624;2022-08-21T11:04:37;9.82;;;4.50;;
63801;SDS011;49949;43.060;25.624;2022-08-21T11:09:51;8.63;;;3.78;;
63801;SDS011;49949;43.060;25.624;2022-08-21T11:12:22;10.52;;;4.32;;
63801;SDS011;49949;43.060;25.624;2022-08-21T11:17:29;12.07;;;4.70;;
63801;SDS011;49949;43.060;25.624;2022-08-21T11:23:13;8.38;;;4.88;;
63801;SDS011;49949;43.060;25.624;2022-08-21T11:25:52;13.55;;;4.22;;
63801;SDS011;49949;43.060;25.624;2022-08-21T11:28:24;11.30;;;5.03;;
63801;SDS011;49949;43.060;25.624;2022-08-21T11:41:44;10.38;;;3.63;;
63801;SDS011;49949;43.060;25.624;2022-08-21T11:44:46;8.68;;;4.10;;
63801;SDS011;49949;43.060;25.624;2022-08-21T11:47:28;9.85;;;3.92;;
63801;SDS011;49949;43.060;25.624;2022-08-21T11:50:18;12.50;;;4.05;;
63801;SDS011;49949;43.060;25.624;2022-08-21T11:52:50;8.60;;;4.15;;
63801;SDS011;49949;43.060;25.624;2022-08-21T11:57:59;11.25;;;4.00;;
63801;SDS011;49949;43.060;25.624;2022-08-21T12:00:52;11.15;;;3.97;;
63801;SDS011;49949;43.060;25.624;2022-08-21T12:06:04;11.93;;;4.00;;
63801;SDS011;49949;43.060;25.624;2022-08-21T12:09:26;12.65;;;4.13;;
63801;SDS011;49949;43.060;25.624;2022-08-21T12:11:27;10.68;;;3.60;;
63801;SDS011;49949;43.060;25.624;2022-08-21T12:13:58;11.40;;;4.05;;
63801;SDS011;49949;43.060;25.624;2022-08-21T12:16:31;11.73;;;3.78;;
63801;SDS011;49949;43.060;25.624;2022-08-21T12:19:06;7.57;;;3.15;;
63801;SDS011;49949;43.060;25.624;2022-08-21T12:21:33;14.55;;;3.65;;
63801;SDS011;49949;43.060;25.624;2022-08-21T12:34:50;13.75;;;4.00;;
63801;SDS011;49949;43.060;25.624;2022-08-21T12:37:42;11.57;;;3.50;;
63801;SDS011;49949;43.060;25.624;2022-08-21T12:40:20;17.33;;;4.30;;
63801;SDS011;49949;43.060;25.624;2022-08-21T12:47:57;9.13;;;3.83;;
63801;SDS011;49949;43.060;25.624;2022-08-21T12:50:58;13.65;;;4.13;;
63801;SDS011;49949;43.060;25.624;2022-08-21T12:53:50;9.38;;;4.10;;
63801;SDS011;49949;43.060;25.624;2022-08-21T12:56:22;10.75;;;3.58;;
63801;SDS011;49949;43.060;25.624;2022-08-21T12:58:51;10.68;;;4.10;;
63801;SDS011;49949;43.060;25.624;2022-08-21T13:01:39;13.80;;;3.77;;
63801;SDS011;49949;43.060;25.624;2022-08-21T13:04:14;15.07;;;4.03;;
63801;SDS011;49949;43.060;25.624;2022-08-21T13:06:43;8.10;;;3.80;;
63801;SDS011;49949;43.060;25.624;2022-08-21T13:09:12;13.80;;;4.38;;
63801;SDS011;49949;43.060;25.624;2022-08-21T13:11:41;8.20;;;3.63;;
63801;SDS011;49949;43.060;25.624;2022-08-21T13:14:13;8.75;;;4.45;;
63801;SDS011;49949;43.060;25.624;2022-08-21T13:16:48;13.02;;;4.18;;
63801;SDS011;49949;43.060;25.624;2022-08-21T13:19:22;9.93;;;3.92;;
63801;SDS011;49949;43.060;25.624;2022-08-21T13:21:48;6.47;;;4.20;;
63801;SDS011;49949;43.060;25.624;2022-08-21T13:24:26;12.43;;;4.00;;
63801;SDS011;49949;43.060;25.624;2022-08-21T13:27:02;9.38;;;4.32;;
63801;SDS011;49949;43.060;25.624;2022-08-21T13:29:30;9.60;;;4.05;;
63801;SDS011;49949;43.060;25.624;2022-08-21T13:32:02;11.70;;;4.78;;
63801;SDS011;49949;43.060;25.624;2022-08-21T13:34:35;15.80;;;4.47;;
63801;SDS011;49949;43.060;25.624;2022-08-21T13:37:06;5.82;;;3.75;;
63801;SDS011;49949;43.060;25.624;2022-08-21T13:39:33;9.07;;;3.85;;
63801;SDS011;49949;43.060;25.624;2022-08-21T13:42:00;7.72;;;4.03;;
63801;SDS011;49949;43.060;25.624;2022-08-21T13:44:42;9.95;;;4.03;;
63801;SDS011;49949;43.060;25.624;2022-08-21T13:47:09;9.03;;;3.90;;
63801;SDS011;49949;43.060;25.624;2022-08-21T13:49:48;7.57;;;4.10;;
63801;SDS011;49949;43.060;25.624;2022-08-21T13:52:24;14.30;;;4.30;;
63801;SDS011;49949;43.060;25.624;2022-08-21T13:54:58;11.85;;;4.30;;
63801;SDS011;49949;43.060;25.624;2022-08-21T13:57:33;8.52;;;4.22;;
63801;SDS011;49949;43.060;25.624;2022-08-21T14:00:19;11.90;;;5.18;;
63801;SDS011;49949;43.060;25.624;2022-08-21T14:02:51;21.48;;;4.85;;
63801;SDS011;49949;43.060;25.624;2022-08-21T14:05:26;12.55;;;5.45;;
63801;SDS011;49949;43.060;25.624;2022-08-21T14:10:36;11.90;;;5.53;;
63801;SDS011;49949;43.060;25.624;2022-08-21T14:18:42;9.55;;;4.93;;
63801;SDS011;49949;43.060;25.624;2022-08-21T14:21:13;13.02;;;4.55;;
63801;SDS011;49949;43.060;25.624;2022-08-21T14:23:58;9.10;;;4.47;;
63801;SDS011;49949;43.060;25.624;2022-08-21T14:26:28;6.95;;;4.20;;
63801;SDS011;49949;43.060;25.624;2022-08-21T14:28:57;9.88;;;4.30;;
63801;SDS011;49949;43.060;25.624;2022-08-21T14:31:28;7.93;;;4.10;;
63801;SDS011;49949;43.060;25.624;2022-08-21T14:33:55;12.93;;;3.58;;
63801;SDS011;49949;43.060;25.624;2022-08-21T14:36:21;16.17;;;4.57;;
63801;SDS011;49949;43.060;25.624;2022-08-21T14:38:47;10.95;;;3.60;;
63801;SDS011;49949;43.060;25.624;2022-08-21T14:41:17;16.63;;;3.92;;
63801;SDS011;49949;43.060;25.624;2022-08-21T14:43:46;7.80;;;3.80;;
63801;SDS011;49949;43.060;25.624;2022-08-21T14:46:13;8.35;;;3.75;;
63801;SDS011;49949;43.060;25.624;2022-08-21T14:48:50;14.43;;;3.80;;
63801;SDS011;49949;43.060;25.624;2022-08-21T14:51:16;7.35;;;3.67;;
63801;SDS011;49949;43.060;25.624;2022-08-21T14:53:42;6.60;;;3.67;;
63801;SDS011;49949;43.060;25.624;2022-08-21T14:56:09;13.27;;;3.88;;
63801;SDS011;49949;43.060;25.624;2022-08-21T14:58:37;10.68;;;3.67;;
63801;SDS011;49949;43.060;25.624;2022-08-21T15:01:06;11.27;;;3.50;;
63801;SDS011;49949;43.060;25.624;2022-08-21T15:03:34;8.02;;;3.40;;
63801;SDS011;49949;43.060;25.624;2022-08-21T15:06:00;10.95;;;4.28;;
63801;SDS011;49949;43.060;25.624;2022-08-21T15:08:26;10.65;;;4.82;;
63801;SDS011;49949;43.060;25.624;2022-08-21T15:10:52;13.98;;;5.63;;
63801;SDS011;49949;43.060;25.624;2022-08-21T15:13:19;11.30;;;5.30;;
63801;SDS011;49949;43.060;25.624;2022-08-21T15:15:47;13.18;;;5.38;;
63801;SDS011;49949;43.060;25.624;2022-08-21T15:18:14;10.20;;;4.47;;
63801;SDS011;49949;43.060;25.624;2022-08-21T15:20:39;5.93;;;4.35;;
63801;SDS011;49949;43.060;25.624;2022-08-21T15:23:06;11.55;;;4.75;;
63801;SDS011;49949;43.060;25.624;2022-08-21T15:25:33;7.88;;;3.95;;
63801;SDS011;49949;43.060;25.624;2022-08-21T15:27:59;9.48;;;5.03;;
63801;SDS011;49949;43.060;25.624;2022-08-21T15:30:26;9.35;;;4.18;;
63801;SDS011;49949;43.060;25.624;2022-08-21T15:32:53;8.73;;;4.53;;
63801;SDS011;49949;43.060;25.624;2022-08-21T15:35:19;13.98;;;4.80;;
63801;SDS011;49949;43.060;25.624;2022-08-21T15:37:45;14.30;;;5.25;;
63801;SDS011;49949;43.060;25.624;2022-08-21T15:40:11;11.27;;;5.45;;
63801;SDS011;49949;43.060;25.624;2022-08-21T15:42:38;12.80;;;5.63;;
63801;SDS011;49949;43.060;25.624;2022-08-21T15:45:05;11.95;;;6.05;;
63801;SDS011;49949;43.060;25.624;2022-08-21T15:47:32;14.95;;;6.20;;
63801;SDS011;49949;43.060;25.624;2022-08-21T15:50:00;9.38;;;5.63;;
63801;SDS011;49949;43.060;25.624;2022-08-21T15:52:26;12.00;;;5.97;;
63801;SDS011;49949;43.060;25.624;2022-08-21T15:54:52;9.20;;;5.65;;
63801;SDS011;49949;43.060;25.624;2022-08-21T15:57:19;8.63;;;5.40;;
63801;SDS011;49949;43.060;25.624;2022-08-21T15:59:50;12.68;;;6.70;;
63801;SDS011;49949;43.060;25.624;2022-08-21T16:02:33;14.52;;;7.15;;
63801;SDS011;49949;43.060;25.624;2022-08-21T16:04:58;19.38;;;7.40;;
63801;SDS011;49949;43.060;25.624;2022-08-21T16:07:25;13.82;;;7.30;;
63801;SDS011;49949;43.060;25.624;2022-08-21T16:09:50;12.50;;;6.55;;
63801;SDS011;49949;43.060;25.624;2022-08-21T16:12:18;12.05;;;7.75;;
63801;SDS011;49949;43.060;25.624;2022-08-21T16:14:47;13.60;;;7.07;;
63801;SDS011;49949;43.060;25.624;2022-08-21T16:17:14;9.90;;;7.18;;
63801;SDS011;49949;43.060;25.624;2022-08-21T16:19:40;12.75;;;7.13;;
63801;SDS011;49949;43.060;25.624;2022-08-21T16:22:07;18.92;;;7.28;;
63801;SDS011;49949;43.060;25.624;2022-08-21T16:24:33;12.63;;;6.07;;
63801;SDS011;49949;43.060;25.624;2022-08-21T16:27:00;16.23;;;8.23;;
63801;SDS011;49949;43.060;25.624;2022-08-21T16:29:27;12.18;;;8.55;;
63801;SDS011;49949;43.060;25.624;2022-08-21T16:31:56;15.77;;;9.95;;